createdAt,value
2022-11-10T00:02:24.589Z,47.20
2022-11-10T00:05:11.482Z,47.10
2022-11-10T00:08:02.991Z,47.50
2022-11-10T00:10:58.809Z,47.90
2022-11-10T00:14:02.784Z,48.70
2022-11-10T00:17:05.269Z,48.30
2022-11-10T00:19:51.711Z,47.50
2022-11-10T00:22:39.744Z,46.90
2022-11-10T00:25:28.867Z,46.20
2022-11-10T00:28:15.642Z,45.80
2022-11-10T00:31:06.982Z,45.50
2022-11-10T00:33:53.308Z,45.20
2022-11-10T00:36:40.279Z,45.70
2022-11-10T00:39:28.083Z,46.00
2022-11-10T00:42:16.338Z,46.20
2022-11-10T00:45:03.165Z,47.60
2022-11-10T00:47:49.633Z,49.00
2022-11-10T00:50:36.256Z,49.10
2022-11-10T00:53:23.277Z,49.70
2022-11-10T00:56:10.223Z,49.40
2022-11-10T00:58:58.128Z,49.00
2022-11-10T01:01:44.806Z,48.10
2022-11-10T01:04:31.460Z,47.70
2022-11-10T01:07:18.101Z,47.50
2022-11-10T01:10:05.578Z,47.90
2022-11-10T01:12:52.029Z,48.00
2022-11-10T01:15:41.671Z,48.00
2022-11-10T01:18:28.057Z,47.80
2022-11-10T01:21:14.793Z,47.70
2022-11-10T01:24:01.694Z,48.20
2022-11-10T01:26:48.259Z,47.20
2022-11-10T01:29:35.143Z,46.30
2022-11-10T01:32:23.267Z,45.60
2022-11-10T01:35:10.168Z,45.00
2022-11-10T01:37:56.557Z,44.70
2022-11-10T01:40:43.287Z,44.30
2022-11-10T01:43:30.329Z,44.00
2022-11-10T01:46:17.162Z,43.50
2022-11-10T01:49:06.015Z,43.20
2022-11-10T01:51:57.704Z,43.00
2022-11-10T01:54:48.180Z,43.30
2022-11-10T01:57:36.726Z,42.80
2022-11-10T02:00:24.045Z,43.00
2022-11-10T02:03:14.697Z,43.30
2022-11-10T02:06:02.835Z,42.40
2022-11-10T02:08:51.157Z,43.20
2022-11-10T02:11:39.654Z,43.90
2022-11-10T02:14:26.477Z,43.40
2022-11-10T02:17:14.517Z,43.20
2022-11-10T02:20:04.568Z,43.50
2022-11-10T02:22:52.327Z,44.40
2022-11-10T02:25:38.883Z,44.10
2022-11-10T02:28:27.163Z,44.60
2022-11-10T02:31:13.687Z,44.70
2022-11-10T02:34:00.607Z,44.90
2022-11-10T02:36:46.995Z,44.10
2022-11-10T02:39:35.060Z,43.50
2022-11-10T02:42:21.881Z,43.40
2022-11-10T02:45:09.273Z,43.50
2022-11-10T02:47:56.248Z,43.20
2022-11-10T02:50:43.043Z,43.50
2022-11-10T02:53:29.463Z,43.40
2022-11-10T02:56:17.140Z,43.10
2022-11-10T02:59:04.803Z,43.80
2022-11-10T03:01:51.353Z,43.70
2022-11-10T03:04:38.078Z,43.50
2022-11-10T03:07:24.795Z,44.60
2022-11-10T03:10:11.691Z,44.30
2022-11-10T03:13:01.199Z,44.40
2022-11-10T03:15:48.489Z,44.40
2022-11-10T03:18:35.247Z,44.50
2022-11-10T03:21:21.874Z,44.40
2022-11-10T03:24:08.775Z,44.10
2022-11-10T03:26:55.153Z,44.70
2022-11-10T03:29:43.201Z,44.70
2022-11-10T03:32:29.672Z,44.60
2022-11-10T03:35:16.444Z,45.20
2022-11-10T03:38:03.051Z,45.60
2022-11-10T03:41:17.545Z,45.80
2022-11-10T03:43:58.184Z,46.80
2022-11-10T03:46:51.311Z,47.50
2022-11-10T03:49:38.385Z,49.00
2022-11-10T03:52:25.188Z,51.70
2022-11-10T03:55:13.216Z,50.90
2022-11-10T03:58:03.153Z,52.70
2022-11-10T04:00:49.477Z,52.00
2022-11-10T04:03:37.542Z,51.80
2022-11-10T04:06:42.397Z,52.20
2022-11-10T04:09:28.926Z,52.70
2022-11-10T04:12:33.206Z,53.50
2022-11-10T04:15:37.937Z,53.30
2022-11-10T04:18:29.513Z,52.60
2022-11-10T04:21:18.673Z,53.00
2022-11-10T04:24:05.486Z,53.80
2022-11-10T04:26:52.060Z,53.50
2022-11-10T04:29:38.754Z,52.90
2022-11-10T04:32:25.387Z,52.70
2022-11-10T04:35:12.264Z,52.80
2022-11-10T04:38:01.373Z,53.30
2022-11-10T04:40:48.098Z,53.20
2022-11-10T04:43:34.683Z,53.10
2022-11-10T04:46:25.733Z,52.90
2022-11-10T04:49:12.428Z,54.90
2022-11-10T04:51:59.003Z,55.60
2022-11-10T04:54:46.845Z,56.30
2022-11-10T04:57:33.551Z,56.80
2022-11-10T05:00:20.980Z,58.00
2022-11-10T05:03:09.714Z,57.60
2022-11-10T05:05:56.460Z,57.20
2022-11-10T05:08:44.287Z,57.70
2022-11-10T05:11:32.260Z,56.50
2022-11-10T05:14:18.950Z,55.30
2022-11-10T05:17:05.623Z,53.80
2022-11-10T05:19:52.122Z,52.50
2022-11-10T05:22:38.775Z,52.20
2022-11-10T05:25:28.355Z,50.90
2022-11-10T05:28:16.396Z,50.30
2022-11-10T05:31:02.805Z,49.60
2022-11-10T05:33:49.476Z,48.70
2022-11-10T05:36:36.158Z,48.30
2022-11-10T05:39:22.696Z,47.70
2022-11-10T05:42:09.603Z,47.40
2022-11-10T05:44:57.327Z,46.90
2022-11-10T05:47:43.994Z,46.50
2022-11-10T05:50:30.785Z,46.10
2022-11-10T05:53:18.466Z,45.90
2022-11-10T05:56:05.473Z,46.10
2022-11-10T05:58:52.077Z,46.60
2022-11-10T06:01:40.057Z,46.80
2022-11-10T06:04:26.855Z,47.10
2022-11-10T06:07:13.485Z,47.60
2022-11-10T06:10:00.131Z,48.60
2022-11-10T06:12:46.853Z,49.50
2022-11-10T06:15:35.252Z,49.30
2022-11-10T06:18:23.168Z,49.50
2022-11-10T06:21:09.867Z,48.70
2022-11-10T06:23:56.486Z,48.50
2022-11-10T06:26:43.173Z,47.80
2022-11-10T06:29:29.876Z,47.70
2022-11-10T06:32:16.889Z,47.20
2022-11-10T06:35:05.236Z,47.10
2022-11-10T06:37:59.641Z,47.90
2022-11-10T06:40:46.354Z,48.20
2022-11-10T06:43:33.186Z,48.40
2022-11-10T06:46:19.985Z,49.00
2022-11-10T06:49:06.537Z,49.40
2022-11-10T06:51:54.557Z,50.30
2022-11-10T06:54:41.138Z,51.40
2022-11-10T06:57:28.102Z,52.00
2022-11-10T07:00:16.159Z,53.60
2022-11-10T07:03:03.877Z,54.50
2022-11-10T07:05:50.523Z,55.00
2022-11-10T07:08:38.258Z,56.00
2022-11-10T07:11:24.799Z,56.50
2022-11-10T07:14:11.673Z,57.40
2022-11-10T07:16:58.468Z,57.90
2022-11-10T07:19:45.172Z,57.00
2022-11-10T07:22:31.726Z,57.30
2022-11-10T07:25:19.735Z,56.20
2022-11-10T07:28:10.367Z,56.10
2022-11-10T07:30:56.880Z,55.20
2022-11-10T07:33:43.997Z,55.50
2022-11-10T07:36:30.652Z,56.30
2022-11-10T07:39:17.528Z,55.50
2022-11-10T07:42:05.809Z,56.10
2022-11-10T07:44:52.384Z,56.50
2022-11-10T07:47:39.078Z,56.50
2022-11-10T07:50:25.790Z,56.10
2022-11-10T07:53:14.741Z,56.30
2022-11-10T07:56:01.324Z,57.20
2022-11-10T07:58:49.613Z,57.70
2022-11-10T08:01:36.012Z,56.60
2022-11-10T08:04:22.684Z,56.20
2022-11-10T08:07:09.631Z,56.00
2022-11-10T08:09:56.201Z,56.30
2022-11-10T08:12:42.867Z,57.40
2022-11-10T08:15:32.465Z,58.20
2022-11-10T08:18:20.807Z,58.10
2022-11-10T08:21:07.624Z,57.70
2022-11-10T08:23:54.022Z,57.80
2022-11-10T08:26:40.513Z,58.20
2022-11-10T08:29:27.139Z,58.10
2022-11-10T08:32:15.875Z,58.00
2022-11-10T08:35:02.803Z,56.50
2022-11-10T08:37:49.812Z,56.60
2022-11-10T08:40:36.886Z,56.00
2022-11-10T08:43:23.777Z,56.30
2022-11-10T08:46:10.973Z,56.20
2022-11-10T08:48:58.872Z,56.70
2022-11-10T08:51:45.545Z,57.70
2022-11-10T08:54:32.594Z,58.30
2022-11-10T08:57:19.232Z,58.00
2022-11-10T09:00:06.879Z,58.50
2022-11-10T09:02:53.684Z,58.30
2022-11-10T09:05:43.450Z,58.90
2022-11-10T09:08:30.348Z,58.20
2022-11-10T09:11:16.784Z,58.10
2022-11-10T09:14:03.497Z,58.50
2022-11-10T09:16:50.062Z,58.50
2022-11-10T09:19:36.884Z,57.70
2022-11-10T09:22:24.566Z,57.30
2022-11-10T09:25:11.212Z,57.00
2022-11-10T09:27:57.937Z,57.00
2022-11-10T09:30:46.561Z,57.30
2022-11-10T09:33:33.422Z,56.40
2022-11-10T09:36:20.101Z,56.70
2022-11-10T09:39:08.271Z,56.70
2022-11-10T09:41:56.537Z,56.50
2022-11-10T09:44:51.998Z,56.60
2022-11-10T09:47:57.525Z,57.00
2022-11-10T09:50:50.384Z,55.80
2022-11-10T09:53:42.381Z,55.80
2022-11-10T09:56:34.027Z,56.50
2022-11-10T09:59:27.434Z,56.60
2022-11-10T10:02:23.583Z,56.80
2022-11-10T10:05:34.890Z,56.70
2022-11-10T10:08:31.027Z,56.90
2022-11-10T10:11:32.479Z,56.60
2022-11-10T10:14:36.024Z,57.10
2022-11-10T10:17:27.864Z,58.20
2022-11-10T10:20:20.967Z,58.80
2022-11-10T10:23:19.203Z,58.30
2022-11-10T10:26:06.101Z,58.10
2022-11-10T10:28:53.114Z,58.10
2022-11-10T10:31:44.315Z,58.30
2022-11-10T10:34:34.460Z,58.00
2022-11-10T10:37:26.477Z,57.40
2022-11-10T10:40:17.508Z,57.70
2022-11-10T10:43:05.418Z,58.10
2022-11-10T10:46:06.782Z,58.10
2022-11-10T10:49:28.035Z,56.60
2022-11-10T10:52:17.823Z,57.10
2022-11-10T10:55:08.436Z,57.20
2022-11-10T10:58:01.181Z,57.80
2022-11-10T11:00:49.638Z,58.10
2022-11-10T11:03:42.921Z,57.80
2022-11-10T11:06:31.892Z,57.90
2022-11-10T11:09:20.866Z,58.40
2022-11-10T11:12:09.841Z,58.60
2022-11-10T11:15:14.623Z,58.80
2022-11-10T11:18:02.756Z,58.90
2022-11-10T11:20:58.412Z,58.20
2022-11-10T11:24:01.237Z,58.10
2022-11-10T11:26:56.627Z,57.30
2022-11-10T11:29:59.986Z,57.50
2022-11-10T11:33:19.319Z,57.60
2022-11-10T11:36:15.478Z,57.90
2022-11-10T11:39:16.720Z,57.80
2022-11-10T11:42:15.260Z,57.90
2022-11-10T11:45:17.804Z,58.50
2022-11-10T11:48:45.863Z,58.50
2022-11-10T11:51:39.388Z,57.50
2022-11-10T11:54:42.441Z,57.70
2022-11-10T11:57:41.262Z,57.50
2022-11-10T12:00:30.132Z,57.90
2022-11-10T12:03:33.087Z,57.30
2022-11-10T12:06:34.175Z,57.40
2022-11-10T12:09:29.051Z,57.40
2022-11-10T12:12:31.680Z,57.60
2022-11-10T12:15:29.970Z,57.80
2022-11-10T12:18:31.692Z,57.30
2022-11-10T12:21:26.203Z,57.90
2022-11-10T12:24:29.146Z,58.30
2022-11-10T12:27:22.428Z,58.00
2022-11-10T12:30:12.997Z,57.80
2022-11-10T12:33:05.219Z,57.60
2022-11-10T12:35:54.907Z,57.50
2022-11-10T12:38:47.199Z,57.30
2022-11-10T12:41:42.842Z,56.90
2022-11-10T12:44:36.468Z,56.10
2022-11-10T12:47:25.610Z,55.80
2022-11-10T12:50:32.241Z,56.30
2022-11-10T12:53:23.633Z,56.50
2022-11-10T12:56:19.669Z,55.60
2022-11-10T12:59:25.446Z,55.00
2022-11-10T13:02:28.405Z,55.60
2022-11-10T13:05:33.466Z,55.10
2022-11-10T13:08:32.985Z,54.70
2022-11-10T13:11:26.734Z,54.00
2022-11-10T13:14:23.855Z,54.80
2022-11-10T13:17:12.170Z,55.90
2022-11-10T13:20:20.826Z,56.00
2022-11-10T13:23:26.248Z,55.30
2022-11-10T13:26:33.154Z,54.30
2022-11-10T13:29:32.206Z,53.70
2022-11-10T13:32:30.846Z,54.20
2022-11-10T13:35:56.014Z,54.30
2022-11-10T13:38:44.177Z,54.50
2022-11-10T13:41:33.671Z,53.70
2022-11-10T13:44:27.978Z,53.20
2022-11-10T13:47:42.576Z,53.00
2022-11-10T13:50:41.313Z,53.30
2022-11-10T13:53:42.205Z,54.00
2022-11-10T13:56:42.504Z,53.90
2022-11-10T13:59:33.964Z,54.10
2022-11-10T14:03:00.901Z,54.00
2022-11-10T14:06:13.852Z,53.80
2022-11-10T14:09:07.206Z,53.60
2022-11-10T14:11:59.169Z,53.00
2022-11-10T14:14:53.695Z,51.80
2022-11-10T14:17:45.186Z,51.20
2022-11-10T14:20:44.424Z,51.00
2022-11-10T14:23:35.504Z,50.70
2022-11-10T14:26:28.846Z,49.90
2022-11-10T14:29:34.513Z,49.60
2022-11-10T14:32:24.253Z,49.60
2022-11-10T14:35:20.955Z,49.40
2022-11-10T14:38:20.409Z,49.00
2022-11-10T14:41:15.547Z,48.60
2022-11-10T14:44:05.212Z,48.30
2022-11-10T14:46:52.747Z,47.70
2022-11-10T14:49:39.562Z,47.00
2022-11-10T14:52:26.077Z,46.60
2022-11-10T14:55:18.458Z,46.00
2022-11-10T14:58:12.310Z,46.20
2022-11-10T15:01:01.389Z,46.50
2022-11-10T15:03:48.364Z,46.40
2022-11-10T15:06:35.539Z,46.60
2022-11-10T15:09:28.111Z,46.70
2022-11-10T15:12:24.318Z,47.40
2022-11-10T15:15:20.906Z,47.50
2022-11-10T15:18:27.971Z,47.50
2022-11-10T15:21:16.100Z,47.30
2022-11-10T15:24:06.516Z,47.60
2022-11-10T15:26:54.291Z,47.00
2022-11-10T15:29:41.183Z,46.90
2022-11-10T15:32:34.721Z,46.90
2022-11-10T15:35:31.705Z,46.80
2022-11-10T15:38:31.486Z,46.60
2022-11-10T15:41:27.519Z,46.80
2022-11-10T15:44:16.033Z,46.70
2022-11-10T15:47:02.427Z,46.60
2022-11-10T15:49:49.112Z,46.80
2022-11-10T15:52:39.426Z,46.30
2022-11-10T15:55:25.901Z,46.50
2022-11-10T15:58:16.651Z,46.40
2022-11-10T16:01:03.556Z,46.40
2022-11-10T16:03:50.389Z,46.40
2022-11-10T16:06:37.576Z,46.50
2022-11-10T16:09:25.702Z,46.30
2022-11-10T16:12:18.687Z,46.20
2022-11-10T16:15:06.292Z,46.50
2022-11-10T16:17:52.716Z,46.90
2022-11-10T16:20:39.436Z,47.10
2022-11-10T16:23:27.049Z,47.10
2022-11-10T16:26:17.224Z,47.50
2022-11-10T16:29:04.322Z,48.00
2022-11-10T16:31:51.050Z,47.90
2022-11-10T16:34:37.743Z,48.10
2022-11-10T16:37:25.987Z,48.00
2022-11-10T16:40:15.686Z,47.70
2022-11-10T16:43:03.511Z,47.50
2022-11-10T16:45:52.392Z,46.70
2022-11-10T16:48:38.824Z,47.10
2022-11-10T16:51:29.710Z,47.30
2022-11-10T16:54:16.924Z,47.30
2022-11-10T16:57:03.585Z,47.20
2022-11-10T16:59:51.278Z,46.90
2022-11-10T17:02:39.786Z,46.20
2022-11-10T17:05:26.641Z,46.50
2022-11-10T17:08:22.850Z,47.40
2022-11-10T17:11:11.469Z,47.60
2022-11-10T17:13:57.952Z,47.20
2022-11-10T17:16:51.180Z,47.40
2022-11-10T17:19:37.487Z,47.70
2022-11-10T17:22:25.445Z,48.30
2022-11-10T17:25:16.623Z,48.20
2022-11-10T17:28:03.552Z,48.20
2022-11-10T17:30:52.405Z,48.20
2022-11-10T17:33:40.366Z,48.10
2022-11-10T17:36:27.142Z,48.70
2022-11-10T17:39:15.526Z,48.70
2022-11-10T17:42:03.072Z,49.10
2022-11-10T17:44:49.747Z,49.60
2022-11-10T17:47:37.488Z,49.70
2022-11-10T17:50:25.774Z,50.90
2022-11-10T17:53:19.502Z,51.20
2022-11-10T17:56:06.744Z,51.20
2022-11-10T17:58:54.208Z,50.60
2022-11-10T18:01:40.760Z,51.00
2022-11-10T18:04:29.648Z,51.00
2022-11-10T18:07:17.632Z,50.50
2022-11-10T18:10:06.283Z,50.40
2022-11-10T18:12:55.714Z,50.10
2022-11-10T18:15:45.515Z,50.40
2022-11-10T18:18:32.102Z,50.00
2022-11-10T18:21:18.832Z,51.60
2022-11-10T18:24:08.343Z,52.10
2022-11-10T18:26:58.878Z,52.00
2022-11-10T18:29:45.325Z,51.90
2022-11-10T18:32:32.253Z,52.80
2022-11-10T18:35:18.789Z,52.90
2022-11-10T18:38:06.442Z,53.30
2022-11-10T18:41:17.926Z,52.70
2022-11-10T18:44:04.621Z,52.30
2022-11-10T18:46:51.237Z,51.80
2022-11-10T18:49:37.685Z,51.80
2022-11-10T18:52:24.282Z,51.60
2022-11-10T18:55:12.203Z,51.90
2022-11-10T18:57:59.883Z,51.60
2022-11-10T19:00:46.791Z,51.20
2022-11-10T19:03:33.363Z,50.80
2022-11-10T19:06:20.105Z,50.40
2022-11-10T19:09:06.949Z,50.30
2022-11-10T19:11:53.684Z,50.00
2022-11-10T19:14:42.684Z,50.10
2022-11-10T19:17:29.202Z,50.10
2022-11-10T19:20:16.482Z,49.90
2022-11-10T19:23:02.837Z,49.90
2022-11-10T19:25:49.632Z,49.80
2022-11-10T19:28:36.448Z,49.20
2022-11-10T19:31:25.425Z,48.90
2022-11-10T19:34:11.983Z,48.40
2022-11-10T19:36:58.519Z,48.50
2022-11-10T19:39:44.996Z,48.80
2022-11-10T19:42:31.950Z,48.30
2022-11-10T19:45:18.430Z,47.60
2022-11-10T19:48:07.996Z,47.00
2022-11-10T19:50:55.416Z,46.40
2022-11-10T19:53:42.412Z,46.20
2022-11-10T19:56:31.864Z,45.80
2022-11-10T19:59:21.015Z,45.60
2022-11-10T20:02:08.357Z,46.20
2022-11-10T20:05:16.299Z,46.20
2022-11-10T20:08:11.751Z,46.80
2022-11-10T20:11:01.211Z,47.00
2022-11-10T20:13:54.425Z,46.80
2022-11-10T20:16:43.014Z,45.80
2022-11-10T20:19:30.996Z,45.40
2022-11-10T20:22:19.126Z,46.40
2022-11-10T20:25:08.932Z,45.70
2022-11-10T20:27:55.866Z,45.90
2022-11-10T20:30:45.966Z,45.60
2022-11-10T20:33:33.598Z,45.40
2022-11-10T20:36:24.314Z,45.30
2022-11-10T20:39:15.355Z,45.40
2022-11-10T20:42:01.993Z,45.70
2022-11-10T20:44:48.609Z,45.60
2022-11-10T20:47:35.382Z,45.10
2022-11-10T20:50:24.511Z,44.60
2022-11-10T20:53:13.065Z,44.60
2022-11-10T20:56:02.556Z,44.20
2022-11-10T20:58:51.791Z,44.70
2022-11-10T21:01:38.516Z,44.60
2022-11-10T21:04:25.554Z,44.50
2022-11-10T21:07:12.254Z,44.40
2022-11-10T21:09:58.920Z,45.30
2022-11-10T21:12:53.115Z,45.40
2022-11-10T21:15:40.729Z,44.90
2022-11-10T21:18:30.881Z,45.40
2022-11-10T21:21:22.914Z,44.90
2022-11-10T21:24:10.736Z,45.80
2022-11-10T21:26:57.718Z,45.40
2022-11-10T21:29:46.385Z,46.50
2022-11-10T21:32:33.044Z,45.90
2022-11-10T21:35:20.953Z,46.40
2022-11-10T21:38:07.401Z,46.70
2022-11-10T21:40:54.579Z,46.50
2022-11-10T21:43:42.138Z,48.30
2022-11-10T21:46:30.384Z,47.40
2022-11-10T21:49:17.457Z,46.80
2022-11-10T21:52:03.876Z,46.60
2022-11-10T21:54:50.425Z,47.50
2022-11-10T21:57:37.070Z,48.30
2022-11-10T22:00:23.690Z,48.90
2022-11-10T22:03:11.290Z,47.80
2022-11-10T22:06:02.727Z,47.50
2022-11-10T22:08:49.704Z,48.30
2022-11-10T22:11:53.842Z,48.00
2022-11-10T22:14:58.255Z,48.30
2022-11-10T22:18:02.567Z,47.70
2022-11-10T22:20:51.497Z,48.00
2022-11-10T22:23:55.889Z,46.60
2022-11-10T22:26:42.453Z,47.40
2022-11-10T22:29:31.926Z,46.10
2022-11-10T22:32:18.510Z,45.40
2022-11-10T22:35:05.946Z,46.20
2022-11-10T22:37:54.148Z,45.50
2022-11-10T22:40:58.194Z,45.80
2022-11-10T22:44:02.506Z,45.40
2022-11-10T22:46:51.022Z,45.70
2022-11-10T22:49:40.637Z,45.50
2022-11-10T22:52:27.120Z,45.90
2022-11-10T22:55:15.298Z,45.90
2022-11-10T22:58:01.676Z,45.40
2022-11-10T23:00:48.708Z,44.80
2022-11-10T23:03:35.981Z,44.60
2022-11-10T23:06:22.694Z,44.50
2022-11-10T23:09:09.749Z,44.30
2022-11-10T23:11:57.478Z,44.20
2022-11-10T23:14:44.022Z,44.00
2022-11-10T23:17:30.655Z,43.90
2022-11-10T23:20:17.082Z,44.20
2022-11-10T23:23:03.726Z,43.80
2022-11-10T23:25:57.270Z,43.70
2022-11-10T23:28:46.828Z,44.20
2022-11-10T23:31:33.417Z,43.20
2022-11-10T23:34:20.013Z,43.40
2022-11-10T23:37:06.561Z,43.20
2022-11-10T23:39:53.285Z,43.40
2022-11-10T23:42:40.177Z,43.30
2022-11-10T23:45:46.189Z,43.30
2022-11-10T23:48:34.849Z,43.40
2022-11-10T23:51:21.340Z,43.40
2022-11-10T23:54:07.536Z,44.20
2022-11-10T23:56:57.186Z,43.80
2022-11-10T23:59:43.786Z,43.60
